Mojave, CA

9:30 AM PST on November 22, 2019 (GMT -0800)
Mojave

Weather History for KMHV - June, 2019

Change the Weather History Date:

Sunday, June 2, 2019

  Actual Average Record
Temperature  
Mean Temperature 70 °F -  
Max Temperature 82 °F 86 °F 100 °F (1984)
Min Temperature 59 °F 60 °F 40 °F (1967)
Cooling Degree Days 6    
Growing Degree Days 20 (Base 50)    
Moisture  
Dew Point 44 °F    
Average Humidity 40    
Maximum Humidity 67    
Minimum Humidity 21    
Precipitation  
Precipitation 0.00 in - - ()
Sea Level Pressure  
Sea Level Pressure 29.86 in    
Wind  
Wind Speed 8 mph (WNW)    
Max Wind Speed 24 mph    
Max Gust Speed 32 mph    
Visibility 10 miles    
Events Thunderstorm    
Averages and records for this station are not official NWS values.
T = Trace of Precipitation, MM = Missing Value Source: NWS Daily Summary

Daily Weather History Graph

Daily Weather History Graph

Search for Another Location

Airport or City:

Astronomy

Jun. 02, 2019 Rise Set
Actual Time 5:39 AM PDT 8:02 PM PDT
Civil Twilight 5:10 AM PDT 8:31 PM PDT
Nautical Twilight 4:34 AM PDT 9:07 PM PDT
Astronomical Twilight 3:54 AM PDT 9:46 PM PDT
Moon 5:18 AM PDT (6/2) 7:29 PM PDT (6/2)
Length of Visible Light 15h 21m
Length of Day
14h 22m
Waning Crescent, 1% of the Moon is Illuminated
Jun 2
Waning Crescent
Jun 3
New
Jun 9
First Quarter
Jun 17
Full
Jun 25
Last Quarter

Hourly Weather History & Observations

Time (PDT) Temp. Dew Point Humidity Pressure Visibility Wind Dir Wind Speed Gust Speed Precip Events Conditions
12:20 AM 66.2 °F 42.8 °F 43% 29.85 in 10.0 mi NW 10.4 mph 16.1 mph N/A   Scattered Clouds
12:40 AM 66.2 °F 44.6 °F 46% 29.85 in 10.0 mi NW 8.1 mph - N/A   Mostly Cloudy
1:00 AM 66.2 °F 44.6 °F 46% 29.84 in 10.0 mi WNW 10.4 mph - N/A   Overcast
1:20 AM 64.4 °F 44.6 °F 49% 29.84 in 10.0 mi NNW 6.9 mph - N/A   Mostly Cloudy
1:40 AM 66.2 °F 42.8 °F 43% 29.84 in 10.0 mi North 5.8 mph 11.5 mph N/A   Partly Cloudy
2:00 AM 66.2 °F 44.6 °F 46% 29.84 in 10.0 mi Calm Calm - N/A   Partly Cloudy
2:40 AM 64.4 °F 44.6 °F 49% 29.83 in 10.0 mi Calm Calm - N/A   Partly Cloudy
3:00 AM 64.4 °F 44.6 °F 49% 29.83 in 10.0 mi Calm Calm - N/A   Clear
3:20 AM 64.4 °F 44.6 °F 49% 29.83 in 10.0 mi Calm Calm - N/A   Clear
3:40 AM 62.6 °F 44.6 °F 52% 29.83 in 10.0 mi Calm Calm - N/A   Scattered Clouds
4:00 AM 62.6 °F 46.4 °F 55% 29.83 in 10.0 mi Calm Calm - N/A   Mostly Cloudy
4:20 AM 62.6 °F 44.6 °F 52% 29.84 in 10.0 mi Calm Calm - N/A   Mostly Cloudy
4:40 AM 60.8 °F 46.4 °F 59% 29.83 in 10.0 mi West 3.5 mph - N/A   Mostly Cloudy
5:00 AM 59.0 °F 48.2 °F 67% 29.84 in 10.0 mi Calm Calm - N/A   Scattered Clouds
5:20 AM 59.0 °F 46.4 °F 63% 29.84 in 10.0 mi West 3.5 mph - N/A   Clear
5:40 AM 60.8 °F 48.2 °F 63% 29.84 in 10.0 mi Calm Calm - N/A   Clear
6:00 AM 60.8 °F 48.2 °F 63% 29.85 in 10.0 mi Calm Calm - N/A   Clear
6:20 AM 62.6 °F 48.2 °F 59% 29.85 in 10.0 mi WNW 4.6 mph - N/A   Clear
6:40 AM 62.6 °F 50.0 °F 63% 29.86 in 10.0 mi Calm Calm - N/A   Clear
7:00 AM 64.4 °F 50.0 °F 59% 29.86 in 10.0 mi Calm Calm - N/A   Clear
7:20 AM 66.2 °F 48.2 °F 52% 29.87 in 10.0 mi Calm Calm - N/A   Clear
7:40 AM 69.8 °F 48.2 °F 46% 29.87 in 10.0 mi Calm Calm - N/A   Clear
8:00 AM 71.6 °F 50.0 °F 46% 29.88 in 10.0 mi Calm Calm - N/A   Clear
8:20 AM 73.4 °F 48.2 °F 41% 29.88 in 10.0 mi Calm Calm - N/A   Clear
8:40 AM 73.4 °F 46.4 °F 38% 29.89 in 10.0 mi North 4.6 mph - N/A   Clear
9:00 AM 75.2 °F 46.4 °F 36% 29.89 in 10.0 mi Calm Calm - N/A   Clear
9:20 AM 75.2 °F 44.6 °F 34% 29.89 in 10.0 mi NW 3.5 mph - N/A   Clear
9:40 AM 75.2 °F 42.8 °F 31% 29.89 in 10.0 mi Calm Calm - N/A   Clear
10:00 AM 77.0 °F 42.8 °F 29% 29.89 in 10.0 mi Variable 3.5 mph - N/A   Clear
10:20 AM 78.8 °F 42.8 °F 28% 29.89 in 10.0 mi Calm Calm - N/A   Clear
10:40 AM 77.0 °F 41.0 °F 28% 29.89 in 10.0 mi Variable 3.5 mph - N/A   Clear
11:00 AM 78.8 °F 39.2 °F 24% 29.89 in 10.0 mi South 3.5 mph - N/A   Clear
11:20 AM 78.8 °F 39.2 °F 24% 29.88 in 10.0 mi NNW 3.5 mph - N/A   Clear
11:40 AM 80.6 °F 39.2 °F 23% 29.88 in 10.0 mi Variable 3.5 mph - N/A   Clear
12:00 PM 80.6 °F 39.2 °F 23% 29.88 in 10.0 mi Calm Calm - N/A   Clear
12:20 PM 80.6 °F 39.2 °F 23% 29.88 in 10.0 mi North 6.9 mph 15.0 mph N/A   Clear
12:40 PM 80.6 °F 39.2 °F 23% 29.87 in 10.0 mi NNW 6.9 mph - N/A   Clear
1:00 PM 82.4 °F 39.2 °F 21% 29.87 in 10.0 mi WNW 6.9 mph - N/A   Clear
1:20 PM 82.4 °F 39.2 °F 21% 29.86 in 10.0 mi NW 12.7 mph 19.6 mph N/A   Clear
1:40 PM 82.4 °F 41.0 °F 23% 29.86 in 10.0 mi WNW 11.5 mph - N/A   Clear
2:00 PM 80.6 °F 42.8 °F 26% 29.86 in 10.0 mi WNW 10.4 mph - N/A   Clear
2:20 PM 78.8 °F 41.0 °F 26% 29.85 in 10.0 mi WNW 16.1 mph - N/A   Clear
2:40 PM 78.8 °F 42.8 °F 28% 29.86 in 10.0 mi WNW 12.7 mph - N/A Thunderstorm Partly Cloudy
3:00 PM 80.6 °F 41.0 °F 24% 29.85 in 10.0 mi WNW 13.8 mph - N/A Thunderstorm Partly Cloudy
3:40 PM 77.0 °F 42.8 °F 29% 29.85 in 10.0 mi West 17.3 mph - N/A Thunderstorm Clear
4:00 PM 75.2 °F 44.6 °F 34% 29.85 in 10.0 mi West 17.3 mph - N/A   Clear
4:20 PM 75.2 °F 44.6 °F 34% 29.85 in 10.0 mi West 24.2 mph - N/A   Clear
4:40 PM 75.2 °F 44.6 °F 34% 29.84 in 10.0 mi West 20.7 mph 27.6 mph N/A Thunderstorm Clear
5:00 PM 75.2 °F 41.0 °F 29% 29.84 in 10.0 mi West 21.9 mph 27.6 mph N/A   Clear
5:20 PM 75.2 °F 44.6 °F 34% 29.84 in 10.0 mi WNW 19.6 mph - N/A   Clear
5:40 PM 75.2 °F 44.6 °F 34% 29.85 in 10.0 mi WNW 15.0 mph 20.7 mph N/A   Clear
6:00 PM 75.2 °F 41.0 °F 29% 29.85 in 10.0 mi WNW 18.4 mph 26.5 mph N/A   Clear
6:20 PM 73.4 °F 41.0 °F 31% 29.86 in 10.0 mi NW 16.1 mph - N/A   Clear
6:40 PM 71.6 °F 42.8 °F 35% 29.86 in 10.0 mi WNW 12.7 mph 20.7 mph N/A   Clear
7:00 PM 71.6 °F 44.6 °F 38% 29.85 in 10.0 mi WNW 20.7 mph - N/A   Clear
7:20 PM 71.6 °F 44.6 °F 38% 29.85 in 10.0 mi WNW 21.9 mph 32.2 mph N/A   Clear
7:40 PM 69.8 °F 44.6 °F 40% 29.85 in 10.0 mi NW 18.4 mph 25.3 mph N/A   Clear
8:00 PM 69.8 °F 42.8 °F 38% 29.86 in 10.0 mi NW 17.3 mph 26.5 mph N/A   Clear
8:20 PM 69.8 °F 42.8 °F 38% 29.86 in 10.0 mi NW 17.3 mph 28.8 mph N/A   Clear
8:40 PM 69.8 °F 44.6 °F 40% 29.86 in 10.0 mi NW 18.4 mph 28.8 mph N/A   Clear
9:00 PM 69.8 °F 46.4 °F 43% 29.87 in 10.0 mi WNW 18.4 mph 26.5 mph N/A   Clear
9:20 PM 69.8 °F 48.2 °F 46% 29.87 in 10.0 mi WNW 19.6 mph 25.3 mph N/A   Clear
9:40 PM 69.8 °F 46.4 °F 43% 29.87 in 10.0 mi WNW 20.7 mph 28.8 mph N/A   Clear
10:00 PM 69.8 °F 46.4 °F 43% 29.88 in 10.0 mi WNW 21.9 mph 29.9 mph N/A   Clear
10:20 PM 69.8 °F 46.4 °F 43% 29.88 in 10.0 mi WNW 20.7 mph 27.6 mph N/A   Clear
10:40 PM 69.8 °F 46.4 °F 43% 29.88 in 10.0 mi WNW 20.7 mph - N/A   Clear
11:00 PM 68.0 °F 46.4 °F 46% 29.87 in 10.0 mi WNW 19.6 mph - N/A   Clear
11:20 PM 68.0 °F 46.4 °F 46% 29.87 in 10.0 mi WNW 19.6 mph - N/A   Clear
11:40 PM 68.0 °F 46.4 °F 46% 29.87 in 10.0 mi WNW 17.3 mph - N/A   Clear